sensor_id;sensor_type;location;lat;lon;timestamp;temperature;humidity
33825;DHT22;20127;48.962;8.342;2022-12-29T00:01:38;13.40;98.00
33825;DHT22;20127;48.962;8.342;2022-12-29T00:04:41;13.40;98.00
33825;DHT22;20127;48.962;8.342;2022-12-29T00:07:43;13.40;98.10
33825;DHT22;20127;48.962;8.342;2022-12-29T00:10:44;13.40;98.10
33825;DHT22;20127;48.962;8.342;2022-12-29T00:13:46;13.40;98.10
33825;DHT22;20127;48.962;8.342;2022-12-29T00:17:05;13.40;98.20
33825;DHT22;20127;48.962;8.342;2022-12-29T00:20:09;13.40;98.20
33825;DHT22;20127;48.962;8.342;2022-12-29T00:23:30;13.40;98.30
33825;DHT22;20127;48.962;8.342;2022-12-29T00:26:54;13.40;98.40
33825;DHT22;20127;48.962;8.342;2022-12-29T00:30:17;13.30;98.40
33825;DHT22;20127;48.962;8.342;2022-12-29T00:33:36;13.30;98.50
33825;DHT22;20127;48.962;8.342;2022-12-29T00:36:57;13.30;98.70
33825;DHT22;20127;48.962;8.342;2022-12-29T00:39:59;13.20;98.70
33825;DHT22;20127;48.962;8.342;2022-12-29T00:43:26;13.20;98.80
33825;DHT22;20127;48.962;8.342;2022-12-29T00:46:46;13.20;98.90
33825;DHT22;20127;48.962;8.342;2022-12-29T00:49:47;13.20;99.00
33825;DHT22;20127;48.962;8.342;2022-12-29T00:52:50;13.20;99.20
33825;DHT22;20127;48.962;8.342;2022-12-29T00:55:52;13.20;99.50
33825;DHT22;20127;48.962;8.342;2022-12-29T00:58:54;13.10;99.90
33825;DHT22;20127;48.962;8.342;2022-12-29T01:01:56;13.00;99.90
33825;DHT22;20127;48.962;8.342;2022-12-29T01:04:57;12.90;99.90
33825;DHT22;20127;48.962;8.342;2022-12-29T01:08:00;12.80;99.90
33825;DHT22;20127;48.962;8.342;2022-12-29T01:11:04;12.80;99.90
33825;DHT22;20127;48.962;8.342;2022-12-29T01:14:05;12.80;99.90
33825;DHT22;20127;48.962;8.342;2022-12-29T01:17:07;12.80;99.90
33825;DHT22;20127;48.962;8.342;2022-12-29T01:20:10;12.80;99.90
33825;DHT22;20127;48.962;8.342;2022-12-29T01:23:14;12.80;99.90
33825;DHT22;20127;48.962;8.342;2022-12-29T01:26:17;12.90;99.90
33825;DHT22;20127;48.962;8.342;2022-12-29T01:29:19;12.90;99.90
33825;DHT22;20127;48.962;8.342;2022-12-29T01:32:21;12.90;99.90
33825;DHT22;20127;48.962;8.342;2022-12-29T01:35:22;12.90;99.90
33825;DHT22;20127;48.962;8.342;2022-12-29T01:38:25;12.90;99.90
33825;DHT22;20127;48.962;8.342;2022-12-29T01:41:27;12.90;99.90
33825;DHT22;20127;48.962;8.342;2022-12-29T01:44:51;12.90;99.90
33825;DHT22;20127;48.962;8.342;2022-12-29T01:47:55;12.90;99.90
33825;DHT22;20127;48.962;8.342;2022-12-29T01:50:58;12.90;99.90
33825;DHT22;20127;48.962;8.342;2022-12-29T01:54:03;12.90;99.90
33825;DHT22;20127;48.962;8.342;2022-12-29T01:57:09;12.80;99.90
33825;DHT22;20127;48.962;8.342;2022-12-29T02:00:13;12.80;99.90
33825;DHT22;20127;48.962;8.342;2022-12-29T02:03:16;12.90;99.90
33825;DHT22;20127;48.962;8.342;2022-12-29T02:06:22;12.90;99.90
33825;DHT22;20127;48.962;8.342;2022-12-29T02:09:27;12.90;99.90
33825;DHT22;20127;48.962;8.342;2022-12-29T02:12:29;12.80;99.90
33825;DHT22;20127;48.962;8.342;2022-12-29T02:15:39;12.80;99.90
33825;DHT22;20127;48.962;8.342;2022-12-29T02:18:53;12.80;99.90
33825;DHT22;20127;48.962;8.342;2022-12-29T02:22:05;12.80;99.90
33825;DHT22;20127;48.962;8.342;2022-12-29T02:25:32;12.80;99.90
33825;DHT22;20127;48.962;8.342;2022-12-29T02:28:59;12.80;99.90
33825;DHT22;20127;48.962;8.342;2022-12-29T02:32:13;12.90;99.90
33825;DHT22;20127;48.962;8.342;2022-12-29T02:35:28;12.90;99.90
33825;DHT22;20127;48.962;8.342;2022-12-29T02:38:43;12.80;99.90
33825;DHT22;20127;48.962;8.342;2022-12-29T02:41:57;12.80;99.90
33825;DHT22;20127;48.962;8.342;2022-12-29T02:45:05;12.80;99.90
33825;DHT22;20127;48.962;8.342;2022-12-29T02:48:14;12.90;99.90
33825;DHT22;20127;48.962;8.342;2022-12-29T02:51:20;12.90;99.90
33825;DHT22;20127;48.962;8.342;2022-12-29T02:54:24;12.90;99.90
33825;DHT22;20127;48.962;8.342;2022-12-29T02:57:44;12.90;99.90
33825;DHT22;20127;48.962;8.342;2022-12-29T03:00:56;12.90;99.90
33825;DHT22;20127;48.962;8.342;2022-12-29T03:04:20;12.80;99.90
33825;DHT22;20127;48.962;8.342;2022-12-29T03:07:33;12.80;99.90
33825;DHT22;20127;48.962;8.342;2022-12-29T03:10:47;12.80;99.90
33825;DHT22;20127;48.962;8.342;2022-12-29T03:13:52;12.80;99.90
33825;DHT22;20127;48.962;8.342;2022-12-29T03:17:18;12.90;99.90
33825;DHT22;20127;48.962;8.342;2022-12-29T03:20:26;12.90;99.90
33825;DHT22;20127;48.962;8.342;2022-12-29T03:23:33;12.90;99.90
33825;DHT22;20127;48.962;8.342;2022-12-29T03:26:36;12.90;99.90
33825;DHT22;20127;48.962;8.342;2022-12-29T03:29:42;12.90;99.90
33825;DHT22;20127;48.962;8.342;2022-12-29T03:32:47;12.90;99.90
33825;DHT22;20127;48.962;8.342;2022-12-29T03:35:54;12.90;99.90
33825;DHT22;20127;48.962;8.342;2022-12-29T03:39:00;13.00;99.90
33825;DHT22;20127;48.962;8.342;2022-12-29T03:42:06;12.90;99.90
33825;DHT22;20127;48.962;8.342;2022-12-29T03:45:11;13.00;99.90
33825;DHT22;20127;48.962;8.342;2022-12-29T03:48:12;13.00;99.90
33825;DHT22;20127;48.962;8.342;2022-12-29T03:51:15;13.00;99.90
33825;DHT22;20127;48.962;8.342;2022-12-29T03:54:17;13.00;99.90
33825;DHT22;20127;48.962;8.342;2022-12-29T03:57:18;13.00;99.90
33825;DHT22;20127;48.962;8.342;2022-12-29T04:00:20;12.90;99.90
33825;DHT22;20127;48.962;8.342;2022-12-29T04:03:22;12.80;99.90
33825;DHT22;20127;48.962;8.342;2022-12-29T04:06:25;12.80;99.90
33825;DHT22;20127;48.962;8.342;2022-12-29T04:09:27;12.70;99.90
33825;DHT22;20127;48.962;8.342;2022-12-29T04:12:30;12.70;99.90
33825;DHT22;20127;48.962;8.342;2022-12-29T04:15:31;12.70;99.90
33825;DHT22;20127;48.962;8.342;2022-12-29T04:18:33;12.60;99.90
33825;DHT22;20127;48.962;8.342;2022-12-29T04:21:36;12.60;99.90
33825;DHT22;20127;48.962;8.342;2022-12-29T04:24:38;12.60;99.90
33825;DHT22;20127;48.962;8.342;2022-12-29T04:27:39;12.60;99.90
33825;DHT22;20127;48.962;8.342;2022-12-29T04:30:42;12.70;99.90
33825;DHT22;20127;48.962;8.342;2022-12-29T04:33:44;12.70;99.90
33825;DHT22;20127;48.962;8.342;2022-12-29T04:36:47;12.70;99.90
33825;DHT22;20127;48.962;8.342;2022-12-29T04:39:48;12.70;99.90
33825;DHT22;20127;48.962;8.342;2022-12-29T04:42:50;12.70;99.90
33825;DHT22;20127;48.962;8.342;2022-12-29T04:45:52;12.70;99.90
33825;DHT22;20127;48.962;8.342;2022-12-29T04:48:54;12.70;99.90
33825;DHT22;20127;48.962;8.342;2022-12-29T04:51:57;12.70;99.90
33825;DHT22;20127;48.962;8.342;2022-12-29T04:54:58;12.70;99.90
33825;DHT22;20127;48.962;8.342;2022-12-29T04:58:00;12.80;99.90
33825;DHT22;20127;48.962;8.342;2022-12-29T05:01:02;12.90;99.90
33825;DHT22;20127;48.962;8.342;2022-12-29T05:04:04;12.90;99.90
33825;DHT22;20127;48.962;8.342;2022-12-29T05:07:07;13.00;99.90
33825;DHT22;20127;48.962;8.342;2022-12-29T05:10:09;13.00;99.90
33825;DHT22;20127;48.962;8.342;2022-12-29T05:13:11;13.00;99.90
33825;DHT22;20127;48.962;8.342;2022-12-29T05:16:13;13.00;99.90
33825;DHT22;20127;48.962;8.342;2022-12-29T05:19:15;13.00;99.90
33825;DHT22;20127;48.962;8.342;2022-12-29T05:22:22;13.00;99.90
33825;DHT22;20127;48.962;8.342;2022-12-29T05:25:23;13.10;99.90
33825;DHT22;20127;48.962;8.342;2022-12-29T05:28:25;13.10;99.90
33825;DHT22;20127;48.962;8.342;2022-12-29T05:31:27;13.10;99.90
33825;DHT22;20127;48.962;8.342;2022-12-29T05:34:29;13.10;99.90
33825;DHT22;20127;48.962;8.342;2022-12-29T05:37:32;13.10;99.90
33825;DHT22;20127;48.962;8.342;2022-12-29T05:40:33;13.10;99.90
33825;DHT22;20127;48.962;8.342;2022-12-29T05:43:35;13.10;99.90
33825;DHT22;20127;48.962;8.342;2022-12-29T05:46:37;13.10;99.90
33825;DHT22;20127;48.962;8.342;2022-12-29T05:49:38;13.10;99.90
33825;DHT22;20127;48.962;8.342;2022-12-29T05:52:41;13.10;99.90
33825;DHT22;20127;48.962;8.342;2022-12-29T05:55:43;13.10;99.90
33825;DHT22;20127;48.962;8.342;2022-12-29T05:58:45;13.00;99.90
33825;DHT22;20127;48.962;8.342;2022-12-29T06:01:47;13.00;99.90
33825;DHT22;20127;48.962;8.342;2022-12-29T06:04:49;13.00;99.90
33825;DHT22;20127;48.962;8.342;2022-12-29T06:07:52;13.00;99.90
33825;DHT22;20127;48.962;8.342;2022-12-29T06:10:54;12.90;99.90
33825;DHT22;20127;48.962;8.342;2022-12-29T06:13:56;12.90;99.90
33825;DHT22;20127;48.962;8.342;2022-12-29T06:16:57;12.90;99.90
33825;DHT22;20127;48.962;8.342;2022-12-29T06:20:00;13.00;99.90
33825;DHT22;20127;48.962;8.342;2022-12-29T06:23:03;13.00;99.90
33825;DHT22;20127;48.962;8.342;2022-12-29T06:26:04;13.10;99.90
33825;DHT22;20127;48.962;8.342;2022-12-29T06:29:07;13.20;99.90
33825;DHT22;20127;48.962;8.342;2022-12-29T06:32:09;13.30;99.90
33825;DHT22;20127;48.962;8.342;2022-12-29T06:35:11;13.30;99.80
33825;DHT22;20127;48.962;8.342;2022-12-29T06:38:14;13.30;99.60
33825;DHT22;20127;48.962;8.342;2022-12-29T06:41:15;13.30;99.50
33825;DHT22;20127;48.962;8.342;2022-12-29T06:44:17;13.30;99.40
33825;DHT22;20127;48.962;8.342;2022-12-29T06:47:19;13.20;99.40
33825;DHT22;20127;48.962;8.342;2022-12-29T06:50:20;13.20;99.30
33825;DHT22;20127;48.962;8.342;2022-12-29T06:53:24;13.20;99.30
33825;DHT22;20127;48.962;8.342;2022-12-29T06:56:25;13.20;99.30
33825;DHT22;20127;48.962;8.342;2022-12-29T06:59:27;13.20;99.20
33825;DHT22;20127;48.962;8.342;2022-12-29T07:02:28;13.20;99.20
33825;DHT22;20127;48.962;8.342;2022-12-29T07:05:30;13.10;99.10
33825;DHT22;20127;48.962;8.342;2022-12-29T07:08:34;13.20;99.00
33825;DHT22;20127;48.962;8.342;2022-12-29T07:11:36;13.20;99.00
33825;DHT22;20127;48.962;8.342;2022-12-29T07:14:38;13.20;98.90
33825;DHT22;20127;48.962;8.342;2022-12-29T07:17:39;13.30;98.80
33825;DHT22;20127;48.962;8.342;2022-12-29T07:20:41;13.30;98.60
33825;DHT22;20127;48.962;8.342;2022-12-29T07:23:44;13.30;98.50
33825;DHT22;20127;48.962;8.342;2022-12-29T07:26:46;13.30;98.40
33825;DHT22;20127;48.962;8.342;2022-12-29T07:29:47;13.30;98.30
33825;DHT22;20127;48.962;8.342;2022-12-29T07:32:49;13.30;98.20
33825;DHT22;20127;48.962;8.342;2022-12-29T07:35:51;13.40;98.00
33825;DHT22;20127;48.962;8.342;2022-12-29T07:38:54;13.40;97.80
33825;DHT22;20127;48.962;8.342;2022-12-29T07:41:55;13.50;97.70
33825;DHT22;20127;48.962;8.342;2022-12-29T07:44:57;13.50;97.60
33825;DHT22;20127;48.962;8.342;2022-12-29T07:47:59;13.60;97.50
33825;DHT22;20127;48.962;8.342;2022-12-29T07:51:02;13.60;97.40
33825;DHT22;20127;48.962;8.342;2022-12-29T07:54:05;13.60;97.30
33825;DHT22;20127;48.962;8.342;2022-12-29T07:57:07;13.60;97.10
33825;DHT22;20127;48.962;8.342;2022-12-29T08:00:10;13.50;97.10
33825;DHT22;20127;48.962;8.342;2022-12-29T08:03:12;13.60;97.00
33825;DHT22;20127;48.962;8.342;2022-12-29T08:06:13;13.50;96.90
33825;DHT22;20127;48.962;8.342;2022-12-29T08:09:16;13.50;96.90
33825;DHT22;20127;48.962;8.342;2022-12-29T08:12:18;13.50;97.00
33825;DHT22;20127;48.962;8.342;2022-12-29T08:15:20;13.50;97.10
33825;DHT22;20127;48.962;8.342;2022-12-29T08:18:22;13.50;97.00
33825;DHT22;20127;48.962;8.342;2022-12-29T08:21:23;13.60;96.90
33825;DHT22;20127;48.962;8.342;2022-12-29T08:24:26;13.60;96.80
33825;DHT22;20127;48.962;8.342;2022-12-29T08:27:28;13.70;97.00
33825;DHT22;20127;48.962;8.342;2022-12-29T08:30:30;13.70;96.80
33825;DHT22;20127;48.962;8.342;2022-12-29T08:33:32;13.70;96.60
33825;DHT22;20127;48.962;8.342;2022-12-29T08:36:33;13.80;96.60
33825;DHT22;20127;48.962;8.342;2022-12-29T08:39:36;13.80;96.60
33825;DHT22;20127;48.962;8.342;2022-12-29T08:42:38;13.80;96.50
33825;DHT22;20127;48.962;8.342;2022-12-29T08:45:40;13.80;96.60
33825;DHT22;20127;48.962;8.342;2022-12-29T08:48:42;13.80;96.70
33825;DHT22;20127;48.962;8.342;2022-12-29T08:51:43;13.90;96.70
33825;DHT22;20127;48.962;8.342;2022-12-29T08:54:46;13.90;96.60
33825;DHT22;20127;48.962;8.342;2022-12-29T08:57:48;14.00;96.40
33825;DHT22;20127;48.962;8.342;2022-12-29T09:00:52;14.00;96.30
33825;DHT22;20127;48.962;8.342;2022-12-29T09:03:54;14.00;96.20
33825;DHT22;20127;48.962;8.342;2022-12-29T09:06:56;14.00;96.20
33825;DHT22;20127;48.962;8.342;2022-12-29T09:09:59;14.10;96.30
33825;DHT22;20127;48.962;8.342;2022-12-29T09:13:00;14.10;96.30
33825;DHT22;20127;48.962;8.342;2022-12-29T09:16:02;14.10;96.30
33825;DHT22;20127;48.962;8.342;2022-12-29T09:19:04;14.10;96.30
33825;DHT22;20127;48.962;8.342;2022-12-29T09:22:05;14.10;96.30
33825;DHT22;20127;48.962;8.342;2022-12-29T09:25:09;14.20;96.30
33825;DHT22;20127;48.962;8.342;2022-12-29T09:28:11;14.20;96.40
33825;DHT22;20127;48.962;8.342;2022-12-29T09:31:13;14.30;96.50
33825;DHT22;20127;48.962;8.342;2022-12-29T09:34:15;14.50;96.60
33825;DHT22;20127;48.962;8.342;2022-12-29T09:37:17;14.60;96.70
33825;DHT22;20127;48.962;8.342;2022-12-29T09:40:26;14.80;96.20
33825;DHT22;20127;48.962;8.342;2022-12-29T09:43:53;14.80;96.20
33825;DHT22;20127;48.962;8.342;2022-12-29T09:46:56;14.70;96.30
33825;DHT22;20127;48.962;8.342;2022-12-29T09:50:03;14.70;96.50
33825;DHT22;20127;48.962;8.342;2022-12-29T09:53:13;14.80;96.40
33825;DHT22;20127;48.962;8.342;2022-12-29T09:56:20;14.90;96.60
33825;DHT22;20127;48.962;8.342;2022-12-29T09:59:25;15.20;96.50
33825;DHT22;20127;48.962;8.342;2022-12-29T10:02:32;15.40;96.20
33825;DHT22;20127;48.962;8.342;2022-12-29T10:05:41;15.50;96.20
33825;DHT22;20127;48.962;8.342;2022-12-29T10:08:52;15.80;96.20
33825;DHT22;20127;48.962;8.342;2022-12-29T10:12:11;15.80;95.80
33825;DHT22;20127;48.962;8.342;2022-12-29T10:15:18;15.80;96.00
33825;DHT22;20127;48.962;8.342;2022-12-29T10:18:37;15.70;96.00
33825;DHT22;20127;48.962;8.342;2022-12-29T10:21:56;15.50;96.00
33825;DHT22;20127;48.962;8.342;2022-12-29T10:25:02;15.30;96.70
33825;DHT22;20127;48.962;8.342;2022-12-29T10:28:19;15.20;97.00
33825;DHT22;20127;48.962;8.342;2022-12-29T10:31:23;15.10;96.90
33825;DHT22;20127;48.962;8.342;2022-12-29T10:34:28;15.20;97.10
33825;DHT22;20127;48.962;8.342;2022-12-29T10:37:40;15.30;96.90
33825;DHT22;20127;48.962;8.342;2022-12-29T10:40:47;15.40;96.80
33825;DHT22;20127;48.962;8.342;2022-12-29T10:43:53;15.50;96.80
33825;DHT22;20127;48.962;8.342;2022-12-29T10:46:58;15.40;96.80
33825;DHT22;20127;48.962;8.342;2022-12-29T10:50:03;15.30;96.90
33825;DHT22;20127;48.962;8.342;2022-12-29T10:53:06;15.20;96.90
33825;DHT22;20127;48.962;8.342;2022-12-29T10:56:25;15.10;97.10
33825;DHT22;20127;48.962;8.342;2022-12-29T10:59:32;15.10;97.20
33825;DHT22;20127;48.962;8.342;2022-12-29T11:02:59;15.10;97.30
33825;DHT22;20127;48.962;8.342;2022-12-29T11:06:08;15.00;97.20
33825;DHT22;20127;48.962;8.342;2022-12-29T11:09:15;15.00;97.20
33825;DHT22;20127;48.962;8.342;2022-12-29T11:12:23;15.00;97.10
33825;DHT22;20127;48.962;8.342;2022-12-29T11:15:26;14.90;97.30
33825;DHT22;20127;48.962;8.342;2022-12-29T11:18:33;14.80;97.40
33825;DHT22;20127;48.962;8.342;2022-12-29T11:21:38;14.80;97.40
33825;DHT22;20127;48.962;8.342;2022-12-29T11:24:44;14.90;97.50
33825;DHT22;20127;48.962;8.342;2022-12-29T11:27:55;14.90;97.50
33825;DHT22;20127;48.962;8.342;2022-12-29T11:31:01;14.90;97.50
33825;DHT22;20127;48.962;8.342;2022-12-29T11:34:06;14.80;97.60
33825;DHT22;20127;48.962;8.342;2022-12-29T11:37:12;14.90;97.60
33825;DHT22;20127;48.962;8.342;2022-12-29T11:40:16;15.00;97.60
33825;DHT22;20127;48.962;8.342;2022-12-29T11:43:23;15.30;97.80
33825;DHT22;20127;48.962;8.342;2022-12-29T11:46:29;15.60;97.30
33825;DHT22;20127;48.962;8.342;2022-12-29T11:49:31;15.70;97.20
33825;DHT22;20127;48.962;8.342;2022-12-29T11:52:35;15.80;96.80
33825;DHT22;20127;48.962;8.342;2022-12-29T11:55:39;15.60;96.70
33825;DHT22;20127;48.962;8.342;2022-12-29T11:58:42;15.50;96.70
33825;DHT22;20127;48.962;8.342;2022-12-29T12:01:45;15.40;96.50
33825;DHT22;20127;48.962;8.342;2022-12-29T12:04:51;15.20;96.40
33825;DHT22;20127;48.962;8.342;2022-12-29T12:07:59;15.30;96.30
33825;DHT22;20127;48.962;8.342;2022-12-29T12:11:07;15.20;96.40
33825;DHT22;20127;48.962;8.342;2022-12-29T12:14:15;15.30;96.30
33825;DHT22;20127;48.962;8.342;2022-12-29T12:17:23;15.40;96.00
33825;DHT22;20127;48.962;8.342;2022-12-29T12:20:43;15.30;95.90
33825;DHT22;20127;48.962;8.342;2022-12-29T12:23:59;15.30;96.00
33825;DHT22;20127;48.962;8.342;2022-12-29T12:27:08;15.20;96.00
33825;DHT22;20127;48.962;8.342;2022-12-29T12:30:14;15.10;96.00
33825;DHT22;20127;48.962;8.342;2022-12-29T12:33:23;15.10;96.30
33825;DHT22;20127;48.962;8.342;2022-12-29T12:40:13;15.10;96.80
33825;DHT22;20127;48.962;8.342;2022-12-29T12:43:39;15.10;96.70
33825;DHT22;20127;48.962;8.342;2022-12-29T12:46:55;15.10;96.90
33825;DHT22;20127;48.962;8.342;2022-12-29T12:50:28;15.00;97.00
33825;DHT22;20127;48.962;8.342;2022-12-29T12:53:44;15.10;97.20
33825;DHT22;20127;48.962;8.342;2022-12-29T12:56:56;15.10;97.30
33825;DHT22;20127;48.962;8.342;2022-12-29T13:00:03;15.10;97.30
33825;DHT22;20127;48.962;8.342;2022-12-29T13:03:11;15.10;97.20
33825;DHT22;20127;48.962;8.342;2022-12-29T13:06:22;15.10;97.20
33825;DHT22;20127;48.962;8.342;2022-12-29T13:09:42;15.00;97.30
33825;DHT22;20127;48.962;8.342;2022-12-29T13:12:52;14.90;97.40
33825;DHT22;20127;48.962;8.342;2022-12-29T13:16:03;14.80;97.40
33825;DHT22;20127;48.962;8.342;2022-12-29T13:19:12;14.70;97.60
33825;DHT22;20127;48.962;8.342;2022-12-29T13:22:19;14.60;98.10
33825;DHT22;20127;48.962;8.342;2022-12-29T13:25:29;14.50;98.70
33825;DHT22;20127;48.962;8.342;2022-12-29T13:28:41;14.30;99.00
33825;DHT22;20127;48.962;8.342;2022-12-29T13:31:51;14.20;99.20
33825;DHT22;20127;48.962;8.342;2022-12-29T13:34:59;14.10;99.70
33825;DHT22;20127;48.962;8.342;2022-12-29T13:38:10;13.90;99.90
33825;DHT22;20127;48.962;8.342;2022-12-29T13:41:25;13.70;99.90
33825;DHT22;20127;48.962;8.342;2022-12-29T13:44:35;13.50;99.90
33825;DHT22;20127;48.962;8.342;2022-12-29T13:47:40;13.30;99.90
33825;DHT22;20127;48.962;8.342;2022-12-29T13:50:46;13.00;99.90
33825;DHT22;20127;48.962;8.342;2022-12-29T13:54:00;12.70;99.90
33825;DHT22;20127;48.962;8.342;2022-12-29T13:57:10;12.50;99.90
33825;DHT22;20127;48.962;8.342;2022-12-29T14:00:15;12.20;99.90
33825;DHT22;20127;48.962;8.342;2022-12-29T14:03:40;11.90;99.90
33825;DHT22;20127;48.962;8.342;2022-12-29T14:06:45;11.70;99.90
33825;DHT22;20127;48.962;8.342;2022-12-29T14:09:50;11.50;99.90
33825;DHT22;20127;48.962;8.342;2022-12-29T14:13:00;11.40;99.90
33825;DHT22;20127;48.962;8.342;2022-12-29T14:16:04;11.40;99.90
33825;DHT22;20127;48.962;8.342;2022-12-29T14:19:12;11.30;99.90
33825;DHT22;20127;48.962;8.342;2022-12-29T14:22:23;11.20;99.90
33825;DHT22;20127;48.962;8.342;2022-12-29T14:25:58;11.20;99.90
33825;DHT22;20127;48.962;8.342;2022-12-29T14:32:37;11.00;99.90
33825;DHT22;20127;48.962;8.342;2022-12-29T14:35:41;10.70;99.90
33825;DHT22;20127;48.962;8.342;2022-12-29T14:38:45;10.50;99.90
33825;DHT22;20127;48.962;8.342;2022-12-29T14:41:48;10.30;99.90
33825;DHT22;20127;48.962;8.342;2022-12-29T14:45:02;10.30;99.90
33825;DHT22;20127;48.962;8.342;2022-12-29T14:48:31;10.30;99.90
33825;DHT22;20127;48.962;8.342;2022-12-29T14:51:36;10.20;99.90
33825;DHT22;20127;48.962;8.342;2022-12-29T14:54:47;10.20;99.90
33825;DHT22;20127;48.962;8.342;2022-12-29T14:57:53;10.20;99.90
33825;DHT22;20127;48.962;8.342;2022-12-29T15:00:58;10.20;99.90
33825;DHT22;20127;48.962;8.342;2022-12-29T15:04:06;10.20;99.90
33825;DHT22;20127;48.962;8.342;2022-12-29T15:07:15;10.20;99.90
33825;DHT22;20127;48.962;8.342;2022-12-29T15:10:19;10.20;99.90
33825;DHT22;20127;48.962;8.342;2022-12-29T15:13:33;10.20;99.90
33825;DHT22;20127;48.962;8.342;2022-12-29T15:16:35;10.20;99.90
33825;DHT22;20127;48.962;8.342;2022-12-29T15:19:37;10.20;99.90
33825;DHT22;20127;48.962;8.342;2022-12-29T15:22:41;10.20;99.90
33825;DHT22;20127;48.962;8.342;2022-12-29T15:25:47;10.20;99.90
33825;DHT22;20127;48.962;8.342;2022-12-29T15:28:53;10.20;99.90
33825;DHT22;20127;48.962;8.342;2022-12-29T15:31:57;10.10;99.90
33825;DHT22;20127;48.962;8.342;2022-12-29T15:34:59;10.00;99.90
33825;DHT22;20127;48.962;8.342;2022-12-29T15:38:14;10.00;99.90
33825;DHT22;20127;48.962;8.342;2022-12-29T15:41:28;9.90;99.90
33825;DHT22;20127;48.962;8.342;2022-12-29T15:44:36;10.00;99.90
33825;DHT22;20127;48.962;8.342;2022-12-29T15:47:40;9.90;99.90
33825;DHT22;20127;48.962;8.342;2022-12-29T15:50:42;9.90;99.90
33825;DHT22;20127;48.962;8.342;2022-12-29T15:53:47;9.90;99.90
33825;DHT22;20127;48.962;8.342;2022-12-29T15:56:49;9.90;99.90
33825;DHT22;20127;48.962;8.342;2022-12-29T15:59:53;9.90;99.90
33825;DHT22;20127;48.962;8.342;2022-12-29T16:02:57;10.00;99.90
33825;DHT22;20127;48.962;8.342;2022-12-29T16:06:07;10.00;99.90
33825;DHT22;20127;48.962;8.342;2022-12-29T16:09:16;10.00;99.90
33825;DHT22;20127;48.962;8.342;2022-12-29T16:12:20;10.00;99.90
33825;DHT22;20127;48.962;8.342;2022-12-29T16:15:23;10.10;99.90
33825;DHT22;20127;48.962;8.342;2022-12-29T16:18:32;10.10;99.90
33825;DHT22;20127;48.962;8.342;2022-12-29T16:21:35;10.10;99.90
33825;DHT22;20127;48.962;8.342;2022-12-29T16:24:39;10.20;99.90
33825;DHT22;20127;48.962;8.342;2022-12-29T16:27:42;10.10;99.90
33825;DHT22;20127;48.962;8.342;2022-12-29T16:30:45;10.20;99.90
33825;DHT22;20127;48.962;8.342;2022-12-29T16:33:49;10.20;99.90
33825;DHT22;20127;48.962;8.342;2022-12-29T16:36:56;10.20;99.90
33825;DHT22;20127;48.962;8.342;2022-12-29T16:40:25;10.20;99.90
33825;DHT22;20127;48.962;8.342;2022-12-29T16:43:29;10.20;99.90
33825;DHT22;20127;48.962;8.342;2022-12-29T16:46:33;10.20;99.90
33825;DHT22;20127;48.962;8.342;2022-12-29T16:49:37;10.20;99.90
33825;DHT22;20127;48.962;8.342;2022-12-29T16:52:40;10.20;99.90
33825;DHT22;20127;48.962;8.342;2022-12-29T16:55:46;10.20;99.90
33825;DHT22;20127;48.962;8.342;2022-12-29T16:58:48;10.20;99.90
33825;DHT22;20127;48.962;8.342;2022-12-29T17:01:54;10.20;99.90
33825;DHT22;20127;48.962;8.342;2022-12-29T17:04:56;10.20;99.90
33825;DHT22;20127;48.962;8.342;2022-12-29T17:07:58;10.20;99.90
33825;DHT22;20127;48.962;8.342;2022-12-29T17:11:01;10.20;99.90
33825;DHT22;20127;48.962;8.342;2022-12-29T17:14:28;10.10;99.90
33825;DHT22;20127;48.962;8.342;2022-12-29T17:17:35;10.10;99.90
33825;DHT22;20127;48.962;8.342;2022-12-29T17:20:37;10.10;99.90
33825;DHT22;20127;48.962;8.342;2022-12-29T17:23:39;10.00;99.90
33825;DHT22;20127;48.962;8.342;2022-12-29T17:26:41;10.00;99.90
33825;DHT22;20127;48.962;8.342;2022-12-29T17:29:43;10.00;99.90
33825;DHT22;20127;48.962;8.342;2022-12-29T17:32:51;10.00;99.90
33825;DHT22;20127;48.962;8.342;2022-12-29T17:35:53;10.00;99.90
33825;DHT22;20127;48.962;8.342;2022-12-29T17:38:54;10.00;99.90
33825;DHT22;20127;48.962;8.342;2022-12-29T17:41:56;10.00;99.90
33825;DHT22;20127;48.962;8.342;2022-12-29T17:44:58;10.00;99.90
33825;DHT22;20127;48.962;8.342;2022-12-29T17:48:01;10.00;99.90
33825;DHT22;20127;48.962;8.342;2022-12-29T17:51:03;9.90;99.90
33825;DHT22;20127;48.962;8.342;2022-12-29T17:54:05;9.90;99.90
33825;DHT22;20127;48.962;8.342;2022-12-29T17:57:11;9.90;99.90
33825;DHT22;20127;48.962;8.342;2022-12-29T18:00:15;9.90;99.90
33825;DHT22;20127;48.962;8.342;2022-12-29T18:03:22;9.80;99.90
33825;DHT22;20127;48.962;8.342;2022-12-29T18:06:24;9.80;99.90
33825;DHT22;20127;48.962;8.342;2022-12-29T18:09:26;9.80;99.90
33825;DHT22;20127;48.962;8.342;2022-12-29T18:12:31;9.80;99.90
33825;DHT22;20127;48.962;8.342;2022-12-29T18:15:34;9.70;99.90
33825;DHT22;20127;48.962;8.342;2022-12-29T18:18:37;9.70;99.90
33825;DHT22;20127;48.962;8.342;2022-12-29T18:21:40;9.70;99.90
33825;DHT22;20127;48.962;8.342;2022-12-29T18:24:43;9.70;99.90
33825;DHT22;20127;48.962;8.342;2022-12-29T18:27:45;9.70;99.90
33825;DHT22;20127;48.962;8.342;2022-12-29T18:30:47;9.60;99.90
33825;DHT22;20127;48.962;8.342;2022-12-29T18:33:51;9.60;99.90
33825;DHT22;20127;48.962;8.342;2022-12-29T18:36:53;9.50;99.90
33825;DHT22;20127;48.962;8.342;2022-12-29T18:39:55;9.50;99.90
33825;DHT22;20127;48.962;8.342;2022-12-29T18:42:57;9.70;99.90
33825;DHT22;20127;48.962;8.342;2022-12-29T18:45:58;9.60;99.90
33825;DHT22;20127;48.962;8.342;2022-12-29T18:49:01;9.50;99.90
33825;DHT22;20127;48.962;8.342;2022-12-29T18:52:03;9.50;99.90
33825;DHT22;20127;48.962;8.342;2022-12-29T18:55:11;9.40;99.90
33825;DHT22;20127;48.962;8.342;2022-12-29T18:58:13;9.40;99.90
33825;DHT22;20127;48.962;8.342;2022-12-29T19:01:18;9.40;99.90
33825;DHT22;20127;48.962;8.342;2022-12-29T19:04:22;9.40;99.90
33825;DHT22;20127;48.962;8.342;2022-12-29T19:07:23;9.40;99.90
33825;DHT22;20127;48.962;8.342;2022-12-29T19:10:25;9.30;99.90
33825;DHT22;20127;48.962;8.342;2022-12-29T19:13:27;9.30;99.90
33825;DHT22;20127;48.962;8.342;2022-12-29T19:16:29;9.30;99.90
33825;DHT22;20127;48.962;8.342;2022-12-29T19:19:32;9.30;99.90
33825;DHT22;20127;48.962;8.342;2022-12-29T19:22:33;9.30;99.90
33825;DHT22;20127;48.962;8.342;2022-12-29T19:25:35;9.30;99.90
33825;DHT22;20127;48.962;8.342;2022-12-29T19:28:38;9.30;99.90
33825;DHT22;20127;48.962;8.342;2022-12-29T19:31:39;9.30;99.90
33825;DHT22;20127;48.962;8.342;2022-12-29T19:34:42;9.30;99.90
33825;DHT22;20127;48.962;8.342;2022-12-29T19:37:45;9.30;99.90
33825;DHT22;20127;48.962;8.342;2022-12-29T19:40:48;9.30;99.90
33825;DHT22;20127;48.962;8.342;2022-12-29T19:43:50;9.30;99.90